createdAt,value
2022-11-29T00:02:07.867Z,98766.44
2022-11-29T00:04:37.048Z,98760.75
2022-11-29T00:07:04.767Z,98762.98
2022-11-29T00:09:32.456Z,98761.09
2022-11-29T00:12:12.436Z,98757.83
2022-11-29T00:14:41.595Z,98758.35
2022-11-29T00:17:09.631Z,98756.98
2022-11-29T00:19:37.630Z,98753.19
2022-11-29T00:22:05.578Z,98743.71
2022-11-29T00:24:33.485Z,98751.64
2022-11-29T00:27:01.887Z,98750.42
2022-11-29T00:29:30.374Z,98746.82
2022-11-29T00:31:59.047Z,98745.95
2022-11-29T00:34:26.995Z,98749.05
2022-11-29T00:36:54.926Z,98747.51
2022-11-29T00:39:22.840Z,98747.34
2022-11-29T00:41:50.543Z,98748.36
2022-11-29T00:44:20.411Z,98752.52
2022-11-29T00:46:49.992Z,98756.64
2022-11-29T00:49:18.200Z,98753.38
2022-11-29T00:51:47.226Z,98752.86
2022-11-29T00:54:15.764Z,98749.06
2022-11-29T00:56:44.073Z,98746.13
2022-11-29T00:59:11.932Z,98745.95
2022-11-29T01:01:39.922Z,98742.86
2022-11-29T01:04:07.951Z,98740.98
2022-11-29T01:06:35.708Z,98740.63
2022-11-29T01:09:04.034Z,98742.00
2022-11-29T01:11:32.246Z,98738.90
2022-11-29T01:14:01.908Z,98738.56
2022-11-29T01:16:31.355Z,98741.32
2022-11-29T01:18:59.286Z,98734.09
2022-11-29T01:21:27.329Z,98736.84
2022-11-29T01:23:55.529Z,98732.70
2022-11-29T01:26:26.496Z,98732.88
2022-11-29T01:28:56.634Z,98733.23
2022-11-29T01:31:36.064Z,98731.67
2022-11-29T01:34:05.780Z,98730.12
2022-11-29T01:36:34.056Z,98728.75
2022-11-29T01:39:04.325Z,98728.06
2022-11-29T01:41:35.302Z,98727.73
2022-11-29T01:44:12.329Z,98729.10
2022-11-29T01:46:45.696Z,98727.03
2022-11-29T01:49:16.939Z,98729.27
2022-11-29T01:51:50.415Z,98727.71
2022-11-29T01:54:20.344Z,98726.52
2022-11-29T01:56:50.789Z,98722.39
2022-11-29T01:59:22.158Z,98721.52
2022-11-29T02:01:49.949Z,98721.35
2022-11-29T02:04:19.418Z,98718.75
2022-11-29T02:06:48.524Z,98720.48
2022-11-29T02:09:22.689Z,98726.69
2022-11-29T02:12:09.341Z,98726.69
2022-11-29T02:14:55.978Z,98729.09
2022-11-29T02:17:36.172Z,98733.40
2022-11-29T02:20:25.725Z,98735.65
2022-11-29T02:23:23.003Z,98735.13
2022-11-29T02:26:18.906Z,98735.45
2022-11-29T02:29:19.564Z,98740.45
2022-11-29T02:32:15.408Z,98742.01
2022-11-29T02:34:57.548Z,98739.59
2022-11-29T02:37:43.706Z,98743.38
2022-11-29T02:40:35.866Z,98740.63
2022-11-29T02:43:26.989Z,98738.56
2022-11-29T02:46:00.857Z,98747.00
2022-11-29T02:49:07.439Z,98746.83
2022-11-29T02:51:52.609Z,98747.00
2022-11-29T02:54:26.021Z,98744.77
2022-11-29T02:57:00.155Z,98749.23
2022-11-29T02:59:33.962Z,98751.98
2022-11-29T03:02:26.810Z,98751.30
2022-11-29T03:05:06.774Z,98757.67
2022-11-29T03:08:06.196Z,98764.37
2022-11-29T03:10:39.543Z,98756.45
2022-11-29T03:13:20.582Z,98758.16
2022-11-29T03:15:57.788Z,98761.61
2022-11-29T03:18:28.679Z,98765.39
2022-11-29T03:21:15.388Z,98765.20
2022-11-29T03:24:14.125Z,98764.36
2022-11-29T03:26:47.757Z,98764.02
2022-11-29T03:29:15.464Z,98766.94
2022-11-29T03:31:52.755Z,98773.48
2022-11-29T03:34:36.564Z,98773.31
2022-11-29T03:37:17.807Z,98773.14
2022-11-29T03:39:52.087Z,98773.30
2022-11-29T03:42:28.918Z,98771.93
2022-11-29T03:45:11.076Z,98767.10
2022-11-29T03:47:59.091Z,98768.14
2022-11-29T03:50:35.139Z,98771.41
2022-11-29T03:53:17.179Z,98770.02
2022-11-29T03:55:55.071Z,98776.21
2022-11-29T03:58:28.979Z,98777.08
2022-11-29T04:01:09.460Z,98778.80
2022-11-29T04:04:05.717Z,98778.28
2022-11-29T04:07:12.988Z,98779.48
2022-11-29T04:10:07.211Z,98785.82
2022-11-29T04:13:13.311Z,98781.84
2022-11-29T04:16:22.868Z,98780.48
2022-11-29T04:19:34.758Z,98784.79
2022-11-29T04:22:38.084Z,98785.12
2022-11-29T04:25:33.082Z,98791.48
2022-11-29T04:28:00.805Z,98795.95
2022-11-29T04:30:45.542Z,98794.90
2022-11-29T04:33:25.744Z,98794.57
2022-11-29T04:36:11.738Z,98796.29
2022-11-29T04:39:11.002Z,98793.52
2022-11-29T04:42:08.154Z,98797.33
2022-11-29T04:44:49.473Z,98798.34
2022-11-29T04:47:26.358Z,98799.72
2022-11-29T04:50:13.234Z,98802.61
2022-11-29T04:52:44.207Z,98805.01
2022-11-29T04:55:31.083Z,98805.17
2022-11-29T04:58:22.606Z,98807.75
2022-11-29T05:01:25.769Z,98814.42
2022-11-29T05:04:01.229Z,98813.04
2022-11-29T05:07:08.693Z,98815.79
2022-11-29T05:09:58.974Z,98819.40
2022-11-29T05:12:26.740Z,98823.02
2022-11-29T05:15:28.815Z,98823.35
2022-11-29T05:17:57.662Z,98828.16
2022-11-29T05:20:25.532Z,98829.34
2022-11-29T05:23:16.301Z,98832.41
2022-11-29T05:26:09.398Z,98836.54
2022-11-29T05:28:43.171Z,98837.76
2022-11-29T05:31:39.385Z,98842.41
2022-11-29T05:34:30.250Z,98844.97
2022-11-29T05:37:20.069Z,98847.55
2022-11-29T05:40:10.302Z,98850.65
2022-11-29T05:43:10.492Z,98855.83
2022-11-29T05:45:55.584Z,98855.13
2022-11-29T05:48:38.307Z,98849.98
2022-11-29T05:51:21.732Z,98853.64
2022-11-29T05:54:14.904Z,98856.91
2022-11-29T05:56:49.637Z,98855.02
2022-11-29T05:59:20.853Z,98857.90
2022-11-29T06:02:14.227Z,98856.86
2022-11-29T06:04:57.393Z,98858.39
2022-11-29T06:07:45.418Z,98859.40
2022-11-29T06:10:17.842Z,98866.77
2022-11-29T06:13:11.890Z,98869.19
2022-11-29T06:15:58.651Z,98873.32
2022-11-29T06:19:05.363Z,98875.20
2022-11-29T06:22:01.142Z,98879.50
2022-11-29T06:24:41.732Z,98879.69
2022-11-29T06:27:31.911Z,98886.23
2022-11-29T06:30:18.461Z,98886.42
2022-11-29T06:32:57.066Z,98887.94
2022-11-29T06:35:54.369Z,98887.20
2022-11-29T06:38:26.065Z,98886.90
2022-11-29T06:40:58.697Z,98885.91
2022-11-29T06:43:30.393Z,98881.47
2022-11-29T06:46:14.341Z,98885.42
2022-11-29T06:48:49.784Z,98893.48
2022-11-29T06:51:30.835Z,98894.88
2022-11-29T06:54:08.187Z,98895.21
2022-11-29T06:56:41.739Z,98898.30
2022-11-29T06:59:28.588Z,98898.96
2022-11-29T07:02:38.867Z,98902.55
2022-11-29T07:05:27.257Z,98903.67
2022-11-29T07:08:04.455Z,98904.69
2022-11-29T07:10:35.189Z,98908.30
2022-11-29T07:13:03.437Z,98908.98
2022-11-29T07:15:31.886Z,98908.98
2022-11-29T07:17:59.612Z,98911.92
2022-11-29T07:20:44.628Z,98911.77
2022-11-29T07:23:21.783Z,98912.45
2022-11-29T07:26:27.091Z,98916.73
2022-11-29T07:29:23.235Z,98925.52
2022-11-29T07:32:09.318Z,98927.06
2022-11-29T07:34:40.014Z,98927.61
2022-11-29T07:37:11.023Z,98928.99
2022-11-29T07:39:46.886Z,98931.59
2022-11-29T07:42:54.315Z,98933.52
2022-11-29T07:45:36.849Z,98939.31
2022-11-29T07:48:04.863Z,98935.70
2022-11-29T07:50:43.555Z,98934.00
2022-11-29T07:53:30.362Z,98934.25
2022-11-29T07:55:58.677Z,98936.88
2022-11-29T07:58:27.027Z,98938.13
2022-11-29T08:00:55.005Z,98937.49
2022-11-29T08:03:23.121Z,98938.66
2022-11-29T08:05:51.056Z,98937.27
2022-11-29T08:08:18.894Z,98940.95
2022-11-29T08:10:47.425Z,98941.73
2022-11-29T08:13:15.461Z,98945.56
2022-11-29T08:15:47.590Z,98936.40
2022-11-29T08:18:17.679Z,98940.35
2022-11-29T08:20:46.496Z,98941.44
2022-11-29T08:23:14.980Z,98938.21
2022-11-29T08:25:43.167Z,98936.23
2022-11-29T08:28:11.241Z,98939.94
2022-11-29T08:30:39.637Z,98945.38
2022-11-29T08:33:08.803Z,98945.70
2022-11-29T08:35:36.666Z,98946.40
2022-11-29T08:38:05.183Z,98947.23
2022-11-29T08:40:33.528Z,98951.52
2022-11-29T08:43:01.408Z,98953.08
2022-11-29T08:45:29.423Z,98956.10
2022-11-29T08:47:57.368Z,98954.41
2022-11-29T08:50:25.822Z,98961.84
2022-11-29T08:53:12.393Z,98961.02
2022-11-29T08:55:42.940Z,98965.42
2022-11-29T08:58:13.960Z,98967.03
2022-11-29T09:00:45.625Z,98957.90
2022-11-29T09:03:32.309Z,98956.02
2022-11-29T09:06:10.440Z,98951.55
2022-11-29T09:08:43.802Z,98957.04
2022-11-29T09:11:23.772Z,98959.91
2022-11-29T09:13:58.156Z,98947.80
2022-11-29T09:16:29.405Z,98955.42
2022-11-29T09:18:57.533Z,98957.88
2022-11-29T09:21:27.517Z,98959.24
2022-11-29T09:23:59.413Z,98959.24
2022-11-29T09:26:30.449Z,98959.17
2022-11-29T09:29:01.585Z,98960.20
2022-11-29T09:31:31.488Z,98957.39
2022-11-29T09:33:59.810Z,98962.11
2022-11-29T09:36:29.461Z,98965.48
2022-11-29T09:38:58.156Z,98963.77
2022-11-29T09:41:45.605Z,98958.74
2022-11-29T09:44:43.424Z,98962.52
2022-11-29T09:47:23.864Z,98962.26
2022-11-29T09:50:21.813Z,98964.90
2022-11-29T09:53:27.467Z,98958.27
2022-11-29T09:56:05.918Z,98961.13
2022-11-29T09:58:43.708Z,98956.05
2022-11-29T10:01:20.732Z,98957.62
2022-11-29T10:04:01.038Z,98954.52
2022-11-29T10:06:37.017Z,98957.79
2022-11-29T10:09:15.846Z,98954.99
2022-11-29T10:11:53.531Z,98955.73
2022-11-29T10:14:27.223Z,98954.55
2022-11-29T10:17:18.277Z,98951.48
2022-11-29T10:20:03.275Z,98952.77
2022-11-29T10:22:36.958Z,98952.89
2022-11-29T10:25:06.967Z,98954.08
2022-11-29T10:27:39.280Z,98951.31
2022-11-29T10:30:14.949Z,98949.98
2022-11-29T10:32:46.742Z,98946.73
2022-11-29T10:35:17.318Z,98946.11
2022-11-29T10:38:01.544Z,98945.52
2022-11-29T10:40:37.946Z,98943.66
2022-11-29T10:43:05.933Z,98947.35
2022-11-29T10:45:39.176Z,98947.45
2022-11-29T10:48:12.759Z,98946.56
2022-11-29T10:50:42.750Z,98949.75
2022-11-29T10:53:17.210Z,98943.88
2022-11-29T10:56:01.638Z,98943.08
2022-11-29T10:58:30.932Z,98945.78
2022-11-29T11:01:06.950Z,98942.47
2022-11-29T11:03:42.532Z,98940.33
2022-11-29T11:06:16.434Z,98937.28
2022-11-29T11:08:55.264Z,98933.65
2022-11-29T11:11:29.169Z,98934.34
2022-11-29T11:13:58.063Z,98930.89
2022-11-29T11:16:27.080Z,98930.02
2022-11-29T11:18:55.134Z,98934.27
2022-11-29T11:21:24.332Z,98934.67
2022-11-29T11:23:56.807Z,98936.99
2022-11-29T11:26:26.297Z,98934.88
2022-11-29T11:29:02.579Z,98934.65
2022-11-29T11:31:41.069Z,98940.92
2022-11-29T11:34:26.731Z,98940.17
2022-11-29T11:37:31.516Z,98937.47
2022-11-29T11:40:18.404Z,98939.08
2022-11-29T11:42:47.196Z,98942.89
2022-11-29T11:45:15.113Z,98940.80
2022-11-29T11:47:46.597Z,98935.21
2022-11-29T11:50:15.477Z,98935.46
2022-11-29T11:52:55.755Z,98935.79
2022-11-29T11:55:40.806Z,98935.97
2022-11-29T11:58:16.233Z,98932.12
2022-11-29T12:01:06.274Z,98931.67
2022-11-29T12:03:49.820Z,98932.67
2022-11-29T12:06:24.293Z,98938.02
2022-11-29T12:09:02.581Z,98936.42
2022-11-29T12:11:48.578Z,98937.24
2022-11-29T12:14:27.243Z,98938.05
2022-11-29T12:17:01.886Z,98934.89
2022-11-29T12:19:42.030Z,98933.27
2022-11-29T12:22:13.956Z,98937.11
2022-11-29T12:24:51.779Z,98937.35
2022-11-29T12:27:19.622Z,98941.89
2022-11-29T12:29:47.521Z,98941.30
2022-11-29T12:32:15.208Z,98944.16
2022-11-29T12:35:01.162Z,98944.17
2022-11-29T12:37:49.934Z,98943.73
2022-11-29T12:40:17.582Z,98942.14
2022-11-29T12:43:02.559Z,98947.66
2022-11-29T12:46:17.201Z,98948.45
2022-11-29T12:49:14.005Z,98946.51
2022-11-29T12:52:01.795Z,98949.29
2022-11-29T12:54:43.915Z,98948.98
2022-11-29T12:57:18.116Z,98947.48
2022-11-29T13:00:01.275Z,98948.46
2022-11-29T13:03:14.537Z,98954.31
2022-11-29T13:06:18.794Z,98953.48
2022-11-29T13:09:14.182Z,98952.58
2022-11-29T13:12:09.672Z,98952.74
2022-11-29T13:14:49.788Z,98952.42
2022-11-29T13:17:55.889Z,98957.89
2022-11-29T13:20:35.149Z,98961.45
2022-11-29T13:23:39.008Z,98961.55
2022-11-29T13:26:13.891Z,98962.33
2022-11-29T13:28:44.485Z,98965.00
2022-11-29T13:31:17.328Z,98962.85
2022-11-29T13:34:14.454Z,98964.91
2022-11-29T13:36:54.544Z,98956.53
2022-11-29T13:39:39.126Z,98958.62
2022-11-29T13:42:29.465Z,98955.04
2022-11-29T13:45:00.287Z,98947.70
2022-11-29T13:47:28.686Z,98944.16
2022-11-29T13:50:06.691Z,98946.02
2022-11-29T13:52:47.768Z,98938.58
2022-11-29T13:55:28.908Z,98945.65
2022-11-29T13:58:16.702Z,98944.52
2022-11-29T14:00:45.915Z,98951.90
2022-11-29T14:03:28.972Z,98949.51
2022-11-29T14:06:16.062Z,98948.65
2022-11-29T14:11:52.626Z,98951.49
2022-11-29T14:14:49.990Z,98946.35
2022-11-29T14:17:47.683Z,98949.03
2022-11-29T14:20:30.830Z,98950.05
2022-11-29T14:23:04.853Z,98953.58
2022-11-29T14:25:50.974Z,98947.70
2022-11-29T14:28:22.784Z,98951.29
2022-11-29T14:30:55.545Z,98951.48
2022-11-29T14:33:37.697Z,98954.99
2022-11-29T14:36:14.525Z,98954.53
2022-11-29T14:39:01.273Z,98963.30
2022-11-29T14:41:38.942Z,98965.09
2022-11-29T14:44:39.361Z,98965.95
2022-11-29T14:47:18.951Z,98967.73
2022-11-29T14:49:47.076Z,98973.02
2022-11-29T14:52:14.784Z,98971.59
2022-11-29T14:54:57.584Z,98973.13
2022-11-29T14:57:47.441Z,98971.09
2022-11-29T15:00:16.203Z,98973.10
2022-11-29T15:02:50.364Z,98976.02
2022-11-29T15:05:24.458Z,98977.38
2022-11-29T15:08:32.967Z,98980.44
2022-11-29T15:11:10.038Z,98986.73
2022-11-29T15:13:51.221Z,98988.04
2022-11-29T15:16:34.517Z,98991.64
2022-11-29T15:19:08.664Z,98993.23
2022-11-29T15:22:09.845Z,98996.64
2022-11-29T15:25:05.166Z,99004.10
2022-11-29T15:27:37.368Z,99006.86
2022-11-29T15:30:21.586Z,99008.40
2022-11-29T15:32:49.521Z,99010.80
2022-11-29T15:35:19.825Z,99008.84
2022-11-29T15:37:49.833Z,99008.30
2022-11-29T15:40:21.511Z,99009.23
2022-11-29T15:42:58.010Z,99008.92
2022-11-29T15:45:27.914Z,99011.14
2022-11-29T15:48:10.517Z,99007.48
2022-11-29T15:50:42.958Z,99012.81
2022-11-29T15:53:19.589Z,99011.58
2022-11-29T15:55:50.933Z,99012.58
2022-11-29T15:58:19.354Z,99015.08
2022-11-29T16:00:49.846Z,99018.45
2022-11-29T16:03:30.042Z,99020.11
2022-11-29T16:06:08.509Z,99024.45
2022-11-29T16:08:41.997Z,99027.79
2022-11-29T16:11:17.248Z,99029.98
2022-11-29T16:14:11.447Z,99030.05
2022-11-29T16:16:41.801Z,99033.50
2022-11-29T16:19:11.243Z,99035.52
2022-11-29T16:21:39.351Z,99039.08
2022-11-29T16:24:21.373Z,99041.76
2022-11-29T16:26:50.989Z,99049.79
2022-11-29T16:29:46.466Z,99050.50
2022-11-29T16:32:15.949Z,99049.33
2022-11-29T16:34:45.035Z,99046.20
2022-11-29T16:37:42.133Z,99053.64
2022-11-29T16:40:25.922Z,99055.02
2022-11-29T16:43:03.182Z,99060.58
2022-11-29T16:45:41.495Z,99061.33
2022-11-29T16:48:26.761Z,99063.46
2022-11-29T16:51:09.849Z,99064.38
2022-11-29T16:53:47.786Z,99069.77
2022-11-29T16:56:17.495Z,99071.55
2022-11-29T16:59:16.981Z,99070.05
2022-11-29T17:01:37.826Z,99072.87
2022-11-29T17:04:05.624Z,99072.38
2022-11-29T17:06:35.462Z,99075.19
2022-11-29T17:09:04.258Z,99071.40
2022-11-29T17:11:32.569Z,99076.78
2022-11-29T17:14:00.554Z,99068.85
2022-11-29T17:16:28.557Z,99074.39
2022-11-29T17:18:56.686Z,99078.52
2022-11-29T17:21:27.049Z,99077.15
2022-11-29T17:23:55.284Z,99080.10
2022-11-29T17:26:23.490Z,99081.66
2022-11-29T17:28:52.031Z,99082.02
2022-11-29T17:31:24.282Z,99077.02
2022-11-29T17:33:52.429Z,99074.29
2022-11-29T17:36:21.463Z,99075.33
2022-11-29T17:38:49.362Z,99079.47
2022-11-29T17:41:18.714Z,99079.98
2022-11-29T17:43:46.468Z,99078.95
2022-11-29T17:46:15.880Z,99078.79
2022-11-29T17:48:46.261Z,99076.02
2022-11-29T17:51:43.767Z,99080.16
2022-11-29T17:54:04.518Z,99082.23
2022-11-29T17:56:32.904Z,99081.89
2022-11-29T17:59:02.728Z,99084.81
2022-11-29T18:01:35.947Z,99086.02
2022-11-29T18:04:06.264Z,99089.48
2022-11-29T18:06:40.815Z,99085.50
2022-11-29T18:09:09.672Z,99088.27
2022-11-29T18:11:46.934Z,99087.92
2022-11-29T18:14:18.578Z,99089.98
2022-11-29T18:16:46.663Z,99093.27
2022-11-29T18:19:17.310Z,99091.72
2022-11-29T18:21:45.375Z,99095.68
2022-11-29T18:24:13.645Z,99103.62
2022-11-29T18:26:42.221Z,99101.70
2022-11-29T18:29:10.587Z,99105.34
2022-11-29T18:31:40.227Z,99104.48
2022-11-29T18:34:09.994Z,99105.33
2022-11-29T18:37:20.019Z,99101.02
2022-11-29T18:48:14.759Z,99101.55
2022-11-29T18:50:41.292Z,99115.19
2022-11-29T18:53:07.926Z,99109.83
2022-11-29T18:55:34.553Z,99120.19
2022-11-29T18:58:01.073Z,99114.84
2022-11-29T19:00:27.569Z,99117.92
2022-11-29T19:02:55.541Z,99117.06
2022-11-29T19:05:22.313Z,99120.15
2022-11-29T19:07:48.763Z,99118.08
2022-11-29T19:10:15.460Z,99123.41
2022-11-29T19:12:42.056Z,99122.20
2022-11-29T19:15:09.077Z,99124.44
2022-11-29T19:17:40.154Z,99124.79
2022-11-29T19:20:10.159Z,99119.93
2022-11-29T19:22:36.717Z,99118.91
2022-11-29T19:25:03.466Z,99120.45
2022-11-29T19:27:30.175Z,99122.70
2022-11-29T19:29:56.714Z,99123.22
2022-11-29T19:32:23.552Z,99126.17
2022-11-29T19:34:50.232Z,99124.44
2022-11-29T19:37:16.958Z,99127.73
2022-11-29T19:39:44.027Z,99130.31
2022-11-29T19:42:10.804Z,99138.09
2022-11-29T19:45:08.621Z,99140.16
2022-11-29T19:47:24.349Z,99146.23
2022-11-29T19:49:50.962Z,99144.17
2022-11-29T19:52:17.786Z,99147.45
2022-11-29T19:54:44.300Z,99145.04
2022-11-29T19:57:11.760Z,99149.86
2022-11-29T19:59:38.324Z,99150.56
2022-11-29T20:02:05.041Z,99151.94
2022-11-29T20:04:31.795Z,99147.79
2022-11-29T20:06:58.298Z,99148.66
2022-11-29T20:09:27.707Z,99147.44
2022-11-29T20:11:54.304Z,99153.30
2022-11-29T20:14:21.514Z,99153.80
2022-11-29T20:16:48.252Z,99154.50
2022-11-29T20:19:16.288Z,99160.88
2022-11-29T20:21:45.715Z,99157.95
2022-11-29T20:24:13.686Z,99159.34
2022-11-29T20:26:43.625Z,99161.59
2022-11-29T20:29:11.174Z,99162.62
2022-11-29T20:31:44.387Z,99165.91
2022-11-29T20:34:14.765Z,99166.79
2022-11-29T20:37:12.569Z,99161.78
2022-11-29T20:39:52.871Z,99165.41
2022-11-29T20:42:38.623Z,99159.87
2022-11-29T20:45:08.329Z,99154.18
2022-11-29T20:48:08.690Z,99156.42
2022-11-29T20:50:35.313Z,99163.14
2022-11-29T20:53:29.181Z,99162.44
2022-11-29T20:55:55.872Z,99165.20
2022-11-29T20:58:22.445Z,99162.09
2022-11-29T21:00:49.026Z,99164.33
2022-11-29T21:03:17.536Z,99160.71
2022-11-29T21:05:45.065Z,99167.25
2022-11-29T21:08:13.500Z,99165.36
2022-11-29T21:10:39.875Z,99162.41
2022-11-29T21:13:07.011Z,99164.48
2022-11-29T21:15:34.142Z,99161.02
2022-11-29T21:18:01.066Z,99163.45
2022-11-29T21:20:27.854Z,99160.70
2022-11-29T21:23:06.993Z,99166.05
2022-11-29T21:25:55.813Z,99171.05
2022-11-29T21:28:25.178Z,99172.64
2022-11-29T21:30:51.915Z,99170.74
2022-11-29T21:33:18.858Z,99174.02
2022-11-29T21:35:46.776Z,99174.39
2022-11-29T21:38:23.915Z,99172.65
2022-11-29T21:40:51.123Z,99174.38
2022-11-29T21:43:17.723Z,99171.46
2022-11-29T21:45:46.992Z,99171.29
2022-11-29T21:48:32.867Z,99171.29
2022-11-29T21:50:59.266Z,99168.70
2022-11-29T21:53:27.436Z,99173.35
2022-11-29T21:56:04.115Z,99175.08
2022-11-29T21:58:32.331Z,99176.81
2022-11-29T22:01:11.922Z,99178.89
2022-11-29T22:03:39.509Z,99173.17
2022-11-29T22:06:09.288Z,99175.77
2022-11-29T22:08:40.678Z,99179.90
2022-11-29T22:11:10.063Z,99177.48
2022-11-29T22:13:57.381Z,99177.14
2022-11-29T22:16:24.168Z,99179.73
2022-11-29T22:18:50.986Z,99179.40
2022-11-29T22:21:17.610Z,99175.27
2022-11-29T22:23:44.275Z,99173.17
2022-11-29T22:26:11.430Z,99172.48
2022-11-29T22:28:38.099Z,99176.11
2022-11-29T22:31:10.172Z,99173.70
2022-11-29T22:33:37.842Z,99171.98
2022-11-29T22:36:05.321Z,99171.11
2022-11-29T22:38:32.296Z,99169.73
2022-11-29T22:41:04.278Z,99168.86
2022-11-29T22:43:31.885Z,99164.55
2022-11-29T22:46:12.332Z,99163.52
2022-11-29T22:48:39.296Z,99164.04
2022-11-29T22:51:15.145Z,99165.25
2022-11-29T22:53:47.067Z,99170.09
2022-11-29T22:56:13.806Z,99171.98
2022-11-29T22:58:40.321Z,99170.26
2022-11-29T23:01:11.420Z,99170.94
2022-11-29T23:03:39.252Z,99172.67
2022-11-29T23:06:08.388Z,99170.09
2022-11-29T23:08:35.458Z,99174.06
2022-11-29T23:11:03.954Z,99177.84
2022-11-29T23:13:36.268Z,99177.85
2022-11-29T23:16:03.695Z,99180.95
2022-11-29T23:18:30.629Z,99181.31
2022-11-29T23:21:11.139Z,99182.85
2022-11-29T23:23:38.072Z,99178.70
2022-11-29T23:26:06.675Z,99178.35
2022-11-29T23:28:34.461Z,99174.54
2022-11-29T23:31:01.470Z,99175.92
2022-11-29T23:33:28.059Z,99180.24
2022-11-29T23:36:04.413Z,99182.84
2022-11-29T23:38:31.077Z,99186.29
2022-11-29T23:40:58.215Z,99184.73
2022-11-29T23:43:27.904Z,99182.14
2022-11-29T23:45:54.686Z,99182.32
2022-11-29T23:48:21.270Z,99178.52
2022-11-29T23:50:48.318Z,99181.98
2022-11-29T23:53:16.850Z,99179.39
2022-11-29T23:55:43.297Z,99185.95
2022-11-29T23:58:10.284Z,99188.36
